Details From ULMM - Murmansk
To EFIV - Ivalo
Flight Number -
Tags generated
Created
Modified
Stats Distance 119 nm / 220 km
Max Altitude 8,300 ft / 2,530 m
Waypoints 3
Social Downloads 1
Likes 0
Share VATSIM

Download

Looking for another format? Having issues loading an existing format? Contact us
Advertisement - Login to hide

Notes

Basic altitude profile: - Ascent Rate: 2000ft/min - Ascent Speed: 240kts - Cruise Altitude: 3000ft - Cruise Speed: 240kts - Descent Rate: 1700ft/min - Descent Speed: 180kts Options: - Use NATs: yes - Use PACOTS: yes - Use low airways: yes - Use high airways: yes

Route

ULMM A227 PELOR EFIV

ID Type Via Altitude Latitude Longitude Leg Dist Tot Dist Heading (true) Name
O ULMM APT - 0 ft / 0 m 68.78167˚ 32.75082˚ - 0 nm - Murmansk
PELOR FIX A227 (AWY-LO) 8,300 ft / 2,530 m 68.61667˚ 31.78000˚ 23 nm 23 nm 245° / 244° -
O EFIV APT - 0 ft / 0 m 68.60661˚ 27.41923˚ 95 nm 118 nm 272° / 268° Ivalo

Altitude Profile

Advertisement - Login to hide

ULMM

Details ICAO ULMM (MMK)
Name Murmansk
Region Russia
Timezone Europe/Moscow (UTC+3.0)
Stats Elevation 266 ft / 81 m (AMSL)
Location 68.781671° 32.750821°
Runways 1
Magnetic Variation 16.034° E

METAR

ULMM 201800Z 21002MPS 9999 SCT036 12/M02 Q1013 R31/090070 NOSIG RMK QFE752

Decode

TAF

TAF TAF ULMM 201650Z 2018/2118 23003G08MPS 9999 BKN015 TEMPO 2018/2109 26005G10MPS 4000 -SHRA BKN013CB BECMG 2109/2111 28003G08MPS TEMPO 2111/2118 32005G12MPS 4000 -SHRA BKN013CB

Decode

Departure Runways

ID Width Length Bearing (true) Bearing (mag) Surface Threshold Offset Overrun Length
14 148 ft / 45 m 8,172 ft / 2,491 m 146.23° 130.20° Concrete 0 ft / 0 m 160 ft / 49 m
32 148 ft / 45 m 8,172 ft / 2,491 m 326.26° 310.23° Concrete 0 ft / 0 m 160 ft / 49 m

EFIV

Details ICAO EFIV (IVL)
Name Ivalo
Region Finland
Timezone Europe/Helsinki (UTC+3.0)
Stats Elevation 481 ft / 147 m (AMSL)
Location 68.606615° 27.419231°
Runways 2
Magnetic Variation 13.216° E

METAR

EFIV 201750Z AUTO 22009KT 9999 -SHRA OVC058 13/05 Q1012

Decode

TAF

Not found

Destination Runways

ID Width Length Bearing (true) Bearing (mag) Surface Threshold Offset Overrun Length
04 148 ft / 45 m 8,173 ft / 2,491 m 46.96° 33.74° Asphalt 0 ft / 0 m 721 ft / 220 m
08 148 ft / 45 m 2,616 ft / 797 m 92.19° 78.97° Asphalt 500 ft / 152 m 0 ft / 0 m
22 148 ft / 45 m 8,173 ft / 2,491 m 227.01° 213.79° Asphalt 0 ft / 0 m 209 ft / 64 m
26 148 ft / 45 m 2,616 ft / 797 m 272.21° 258.99° Asphalt 500 ft / 152 m 0 ft / 0 m

Approach Navaids

Runway Type Ident Frequency Range Bearing (true) Bearing (mag) Slope Elevation
22 Localiser IV 109.90 MHz 18 nm / 33 km 226.96° 213.74° - 515 ft / 157 m (AMSL)
22 Glidescope IV 109.90 MHz 10 nm / 19 km 226.99° 213.77° 3.00° 481 ft / 147 m (AMSL)

Popular Alternatives